Flight Track Log - Related Links

Times and Time Zones

All times are in EDT time to prevent confusion due to time zone crossing. See the SWA775 flight status page for this flight to view local times or setup timezone preferences in your user account.

Time Position Orientation Groundspeed Altitude Reporting Facility
EDT Latitude Longitude Course Direction KTS MPH feet Rate Location/Type
Sat 10:39:40 PM 39.8833 -104.6000 90° East 166 191 6,700  Level Denver TRACON
Sat 10:40:40 PM 39.8833 -104.5167 90° East 251 289 8,500 2,053 Climbing Denver TRACON
Sat 10:41:34 PM 39.9333 -104.4667 37° Northeast 274 315 10,600 2,222 Climbing Denver TRACON
Sat 10:42:28 PM 40.0000 -104.5000 339° North 294 338 12,500 2,053 Climbing Denver TRACON
Sat 10:43:28 PM 40.0833 -104.5667 329° Northwest 349 402 14,500 2,167 Climbing Denver TRACON
Sat 10:44:16 PM 40.1436 -104.6114 330° Northwest 354 407 16,400 2,167 Climbing Denver Center
Sat 10:45:16 PM 40.2197 -104.6672 331° Northwest 368 423 18,400 2,331 Climbing Denver Center
Sat 10:46:17 PM 40.3342 -104.7506 331° Northwest 384 442 21,100 2,213 Climbing Denver Center
Sat 10:47:18 PM 40.4292 -104.8233 330° Northwest 397 457 22,900 1,180 Climbing Denver Center
Sat 10:48:19 PM 40.5347 -104.8981 332° Northwest 428 493 23,500 1,377 Climbing Denver Center
Sat 10:49:20 PM 40.6325 -104.9747 329° Northwest 435 501 25,700 2,380 Climbing Denver Center
Sat 10:50:20 PM 40.7358 -105.0506 331° Northwest 420 483 28,300 2,132 Climbing Denver Center
Sat 10:51:21 PM 40.8267 -105.1406 323° Northwest 415 478 30,000 1,820 Climbing Denver Center
Sat 10:52:22 PM 40.9158 -105.2389 320° Northwest 416 479 32,000 1,721 Climbing Denver Center
Sat 10:53:23 PM 41.0028 -105.3394 319° Northwest 412 474 33,500 1,537 Climbing Denver Center
Sat 10:54:23 PM 41.0936 -105.4397 320° Northwest 412 474 35,100 1,488 Climbing Denver Center
Sat 10:55:24 PM 41.1903 -105.5511 319° Northwest 412 474 36,500 1,230 Climbing Denver Center
Sat 10:56:25 PM 41.2725 -105.6478 319° Northwest 412 474 37,600 738 Climbing Denver Center
Sat 10:57:26 PM 41.3497 -105.7506 315° West 410 472 38,000 198 Climbing Denver Center
Sat 10:58:26 PM 41.4197 -105.8975 302° West 421 484 38,000  Level Denver Center
Sat 10:59:27 PM 41.4778 -106.0219 302° West 416 479 38,000  Level Denver Center
Sat 11:00:28 PM 41.5369 -106.1464 302° West 415 478 38,000  Level Denver Center
Sat 11:01:29 PM 41.6064 -106.2928 302° West 417 480 38,000  Level Denver Center
Sat 11:02:29 PM 41.6636 -106.4186 301° West 415 478 38,000  Level Denver Center
Sat 11:03:30 PM 41.7256 -106.5525 302° West 408 470 38,000  Level Denver Center
Sat 11:04:30 PM 41.7733 -106.6569 302° West 412 474 38,000  Level Denver Center
Sat 11:05:31 PM 41.8411 -106.8042 302° West 415 478 38,000  Level Denver Center
Sat 11:06:32 PM 41.9078 -106.9525 301° West 417 480 38,000  Level Denver Center
Sat 11:07:33 PM 41.9650 -107.0808 301° West 419 482 38,000  Level Denver Center
Sat 11:08:33 PM 42.0244 -107.2083 302° West 421 484 38,000  Level Denver Center
Sat 11:09:34 PM 42.0914 -107.3586 301° West 421 484 38,000  Level Denver Center
Sat 11:10:35 PM 42.1478 -107.4872 301° West 420 483 38,000  Level Denver Center
Sat 11:11:35 PM 42.2047 -107.6167 301° West 420 483 38,000  Level Denver Center
Sat 11:12:30 PM 42.2619 -107.7464 301° West 422 486 38,000  Level Salt Lake Center
Sat 11:13:31 PM 42.3192 -107.8767 301° West 422 486 38,000  Level Salt Lake Center
Sat 11:14:31 PM 42.3861 -108.0292 301° West 425 489 38,000  Level Salt Lake Center
Sat 11:15:32 PM 42.4422 -108.1600 300° West 424 488 38,000  Level Salt Lake Center
Sat 11:16:33 PM 42.4989 -108.2878 301° West 418 481 38,000  Level Salt Lake Center
Sat 11:17:33 PM 42.5644 -108.4408 300° West 421 484 38,000  Level Salt Lake Center
Sat 11:18:34 PM 42.6211 -108.5736 300° West 423 487 38,000  Level Salt Lake Center
Sat 11:19:35 PM 42.6872 -108.7275 300° West 424 488 38,000  Level Salt Lake Center
Sat 11:20:36 PM 42.7447 -108.8625 300° West 431 496 38,000  Level Salt Lake Center
Sat 11:21:36 PM 42.8011 -108.9975 300° West 430 495 38,000  Level Salt Lake Center
Sat 11:22:37 PM 42.8686 -109.1578 300° West 436 502 38,000  Level Salt Lake Center
Sat 11:23:38 PM 42.9269 -109.2950 300° West 437 503 38,000  Level Salt Lake Center
Sat 11:24:38 PM 42.9906 -109.4469 300° West 440 506 38,000  Level Salt Lake Center
Sat 11:25:39 PM 43.0500 -109.5892 300° West 446 513 38,000  Level Salt Lake Center
Sat 11:26:40 PM 43.1089 -109.7319 300° West 449 517 38,000  Level Salt Lake Center
Sat 11:27:41 PM 43.1764 -109.9000 299° West 450 518 38,000  Level Salt Lake Center
Sat 11:28:41 PM 43.2353 -110.0425 300° West 449 517 38,000  Level Salt Lake Center
Sat 11:29:42 PM 43.2958 -110.1897 300° West 444 511 38,000  Level Salt Lake Center
Sat 11:30:43 PM 43.3536 -110.3300 300° West 444 511 38,000  Level Salt Lake Center
Sat 11:31:43 PM 43.4211 -110.4967 299° West 448 516 38,000  Level Salt Lake Center
Sat 11:32:44 PM 43.4761 -110.6342 299° West 449 517 38,000  Level Salt Lake Center
Sat 11:33:44 PM 43.5436 -110.8008 299° West 448 516 38,000  Level Salt Lake Center
Sat 11:34:45 PM 43.6008 -110.9486 298° West 454 522 38,000  Level Salt Lake Center
Sat 11:35:46 PM 43.6592 -111.0939 299° West 453 521 38,000  Level Salt Lake Center
Sat 11:36:46 PM 43.7172 -111.2397 299° West 452 520 38,000  Level Salt Lake Center
Sat 11:37:47 PM 43.7831 -111.4100 298° West 450 518 38,000  Level Salt Lake Center
Sat 11:38:48 PM 43.8386 -111.5553 298° West 447 514 38,000  Level Salt Lake Center
Sat 11:39:48 PM 43.8944 -111.7006 298° West 446 513 38,000  Level Salt Lake Center
Sat 11:40:49 PM 43.9592 -111.8694 298° West 443 510 38,000  Level Salt Lake Center
Sat 11:41:50 PM 44.0150 -112.0144 298° West 443 510 38,000  Level Salt Lake Center
Sat 11:42:50 PM 44.0714 -112.1625 298° West 447 514 38,000  Level Salt Lake Center
Sat 11:43:51 PM 44.1142 -112.3475 288° West 455 524 38,000  Level Salt Lake Center
Sat 11:44:52 PM 44.1456 -112.5136 285° West 462 532 38,000  Level Salt Lake Center
Sat 11:45:52 PM 44.1769 -112.6783 285° West 460 529 38,000  Level Salt Lake Center
Sat 11:46:53 PM 44.2122 -112.8694 285° West 457 526 38,000  Level Salt Lake Center
Sat 11:47:54 PM 44.2436 -113.0333 285° West 458 527 38,000  Level Salt Lake Center
Sat 11:48:54 PM 44.2981 -113.1839 297° West 453 521 38,000  Level Salt Lake Center
Sat 11:49:55 PM 44.3519 -113.3350 297° West 454 522 38,000  Level Salt Lake Center
Sat 11:50:55 PM 44.4142 -113.5131 296° West 455 524 38,000  Level Salt Lake Center
Sat 11:51:56 PM 44.4694 -113.6667 297° West 459 528 38,000  Level Salt Lake Center
Sat 11:52:57 PM 44.5242 -113.8219 296° West 463 533 38,000  Level Salt Lake Center
Sat 11:53:57 PM 44.5886 -114.0042 296° West 465 535 38,000  Level Salt Lake Center
Sat 11:54:58 PM 44.6433 -114.1606 296° West 466 536 38,000  Level Salt Lake Center
Sat 11:55:58 PM 44.6964 -114.3150 296° West 462 532 38,000  Level Salt Lake Center
Sat 11:56:59 PM 44.7586 -114.4978 296° West 464 534 38,000  Level Salt Lake Center
Sat 11:58:00 PM 44.8128 -114.6533 296° West 464 534 38,000  Level Salt Lake Center
Sat 11:59:00 PM 44.8642 -114.8092 295° West 461 531 38,000  Level Salt Lake Center
Sun 12:00:01 AM 44.9250 -114.9897 295° West 459 528 38,000  Level Salt Lake Center
Sun 12:01:01 AM 44.9767 -115.1469 295° West 464 534 38,000  Level Salt Lake Center
Sun 12:02:02 AM 45.0300 -115.3047 296° West 467 537 38,000  Level Salt Lake Center
Sun 12:03:03 AM 45.0914 -115.4922 295° West 471 542 38,000  Level Salt Lake Center
Sun 12:04:03 AM 45.1450 -115.6525 295° West 473 544 38,000  Level Salt Lake Center
Sun 12:04:48 AM 45.1892 -115.7897 295° West 474 545 38,000  Level Seattle Center
Sun 12:05:48 AM 45.2403 -115.9486 295° West 467 537 38,000  Level Seattle Center
Sun 12:06:48 AM 45.2914 -116.1075 295° West 464 534 38,000  Level Seattle Center
Sun 12:07:05 AM 45.3083 -116.1603 295° West 467 537 38,000  Level Salt Lake Center
Sun 12:08:06 AM 45.3600 -116.3208 295° West 468 539 38,000  Level Salt Lake Center
Sun 12:08:49 AM 45.4019 -116.4561 294° West 467 537 38,000  Level Seattle Center
Sun 12:09:49 AM 45.4525 -116.6186 294° West 468 539 38,000  Level Seattle Center
Sun 12:10:50 AM 45.5125 -116.8050 295° West 465 535 38,000  Level Seattle Center
Sun 12:11:50 AM 45.5625 -116.9672 294° West 467 537 38,000  Level Seattle Center
Sun 12:12:51 AM 45.6114 -117.1261 294° West 461 531 38,000  Level Seattle Center
Sun 12:13:51 AM 45.6611 -117.2864 294° West 460 529 38,000  Level Seattle Center
Sun 12:14:51 AM 45.7153 -117.4644 294° West 463 533 38,000  Level Seattle Center
Sun 12:15:52 AM 45.7661 -117.6306 294° West 458 527 38,000 -50 Level Seattle Center
Sun 12:16:52 AM 45.8172 -117.7994 294° West 461 531 37,900  Descending Seattle Center
Sun 12:17:52 AM 45.8681 -117.9700 293° West 464 534 38,000 50 Climbing Seattle Center
Sun 12:18:53 AM 45.9194 -118.1411 293° West 466 536 38,000  Level Seattle Center
Sun 12:19:53 AM 45.9692 -118.3117 293° West 465 535 38,000 -50 Level Seattle Center
Sun 12:20:54 AM 46.0194 -118.4833 293° West 466 536 37,900  Descending Seattle Center
Sun 12:21:54 AM 46.0683 -118.6539 293° West 468 539 38,000 50 Climbing Seattle Center
Sun 12:22:54 AM 46.1172 -118.8236 293° West 462 532 38,000  Level Seattle Center
Sun 12:23:55 AM 46.1656 -118.9925 293° West 460 529 38,000  Level Seattle Center
Sun 12:24:55 AM 46.2139 -119.1625 292° West 461 531 38,000  Level Seattle Center
Sun 12:25:55 AM 46.2622 -119.3347 292° West 463 533 38,000  Level Seattle Center
Sun 12:26:56 AM 46.3119 -119.5094 292° West 470 541 38,000  Level Seattle Center
Sun 12:27:56 AM 46.3597 -119.6817 292° West 466 536 38,000 -893 Level Seattle Center
Sun 12:28:57 AM 46.4075 -119.8558 292° West 468 539 36,200 -2,281 Descending Seattle Center
Sun 12:29:57 AM 46.4561 -120.0289 292° West 467 537 33,400 -2,926 Descending Seattle Center
Sun 12:30:58 AM 46.5133 -120.2403 292° West 472 543 30,300 -2,628 Descending Seattle Center
Sun 12:31:58 AM 46.5606 -120.4144 292° West 467 537 28,100 -2,200 Descending Seattle Center
Sun 12:32:58 AM 46.6236 -120.5611 302° West 434 499 25,900 -1,983 Descending Seattle Center
Sun 12:33:59 AM 46.6900 -120.6981 305° West 417 480 24,100 -2,033 Descending Seattle Center
Sun 12:34:59 AM 46.7550 -120.8353 305° West 414 476 21,800 -2,182 Descending Seattle Center
Sun 12:36:00 AM 46.8186 -120.9714 304° West 408 470 19,700 -1,983 Descending Seattle Center
Sun 12:37:00 AM 46.8803 -121.1028 305° West 396 456 17,800 -1,934 Descending Seattle Center
Sun 12:38:01 AM 46.9389 -121.2303 304° West 379 436 15,800 -2,025 Descending Seattle Center
Sun 12:38:20 AM 46.9619 -121.2706 310° West 371 427 15,100 -2,000 Descending Seattle Center
Sun 12:39:01 AM 46.9950 -121.3561 300° West 371 427 13,800 -2,300 Descending Seattle Center
Sun 12:39:20 AM 47.0186 -121.3917 314° West 364 419 12,800 -1,600 Descending Seattle Center
Sun 12:40:01 AM 47.0578 -121.4778 304° West 364 419 12,200 -787 Descending Seattle Center
Sun 12:40:21 AM 47.0756 -121.5228 300° West 347 399 12,000 -492 Descending Seattle Center
Sun 12:41:02 AM 47.0928 -121.5986 288° West 322 371 11,700 -885 Descending Seattle Center
Sun 12:41:22 AM 47.1014 -121.6456 285° West 316 364 11,100 -1,200 Descending Seattle Center
Sun 12:42:02 AM 47.1167 -121.7328 284° West 317 365 10,500 -1,182 Descending Seattle Center
Sun 12:42:28 AM 47.1242 -121.7764 284° West 302 348 9,800 -1,574 Descending Seattle Center
Sun 12:43:03 AM 47.1392 -121.8508 287° West 303 349 8,900 -1,137 Descending Seattle Center
Sun 12:44:03 AM 47.1386 -121.9739 270° West 301 346 8,000 -793 Descending Seattle Center
Sun 12:45:04 AM 47.1344 -122.0858 267° West 277 319 7,300 -992 Descending Seattle Center
Sun 12:46:04 AM 47.1303 -122.1889 267° West 258 297 6,000 -877 Descending Seattle Center
Sun 12:47:14 AM 47.1325 -122.3003 272° West 240 276 5,400 -793 Descending Seattle Center
Sun 12:48:05 AM 47.1808 -122.3133 350° North 201 231 4,400 -750 Descending Seattle Center
Sun 12:49:06 AM 47.2286 -122.3128 360° North 174 200 4,000 -316 Descending Seattle Center
Sun 12:49:21 AM 47.2383 -122.3142 354° North 157 181 4,000 -500 Level Seattle Center
Sun 12:50:06 AM 47.2731 -122.3119 North 163 188 3,500 -736 Descending Seattle Center
Sun 12:51:07 AM 47.3147 -122.3122 360° North 153 176 2,700 -779 Descending Seattle Center
Sun 12:51:23 AM 47.3264 -122.3114 North 147 169 2,500 -700 Descending Seattle Center
Sun 12:52:07 AM 47.3525 -122.3117 360° North 138 159 2,000 -689 Descending Seattle Center
Sun 12:52:24 AM 47.3622 -122.3114 North 131 151 1,800 -689 Descending Seattle Center
Sun 12:53:08 AM 47.3892 -122.3119 359° North 133 153 1,300 -689 Descending Seattle Center
Sun 12:53:25 AM 47.4003 -122.3133 355° North 131 151 1,100 -600 Descending Seattle Center
Sun 12:54:08 AM 47.4256 -122.3117 North 131 151 700 -700 Descending Seattle Center
Sun 12:54:25 AM 47.4358 -122.3133 354° North 131 151 400 -295 Descending Seattle Center
Sun 12:55:09 AM 47.4600 -122.3114 North 130 150 400  Level Seattle Center

Login

Don't have an account? Register now (free) for customized features, flight alerts, and more!